Time;durP1;ratioP1;P1;durP2;ratioP2;P2;SDS_P1;SDS_P2;PMS_P1;PMS_P2;Temp;Humidity;BMP_temperature;BMP_pressure;BME280_temperature;BME280_humidity;BME280_pressure;Samples;Min_cycle;Max_cycle;Signal;HPM_P1;HPM_P2
2022/04/01 00:00:26;;;;;;;21.60;14.98;;;;;;;9.30;72.05;98942.11;1750603;80;21047;-54
2022/04/01 00:02:53;;;;;;;21.65;14.13;;;;;;;9.28;72.15;98945.39;1751566;80;21096;-54
2022/04/01 00:05:20;;;;;;;23.47;13.88;;;;;;;9.26;72.25;98949.12;1752809;80;21135;-54
2022/04/01 00:07:46;;;;;;;24.15;13.98;;;;;;;9.25;72.36;98935.18;1752497;80;21142;-54
2022/04/01 00:10:13;;;;;;;23.05;14.60;;;;;;;9.29;72.30;98939.14;1750577;80;21651;-54
2022/04/01 00:12:44;;;;;;;22.02;15.05;;;;;;;9.31;72.34;98923.24;1758093;80;21026;-54
2022/04/01 00:15:14;;;;;;;26.93;15.60;;;;;;;9.28;72.48;98920.45;1757862;80;21046;-53
2022/04/01 00:17:41;;;;;;;21.95;14.07;;;;;;;9.23;72.62;98912.20;1755349;80;21025;-53
2022/04/01 00:20:10;;;;;;;22.73;15.72;;;;;;;9.18;72.80;98917.08;1747154;80;21098;-54
2022/04/01 00:22:37;;;;;;;19.02;12.90;;;;;;;9.18;72.95;98913.61;1761220;80;21113;-54
2022/04/01 00:25:07;;;;;;;19.07;13.58;;;;;;;9.22;72.87;98911.86;1748986;80;21086;-53
2022/04/01 00:27:35;;;;;;;19.98;14.65;;;;;;;9.26;72.85;98917.63;1750230;80;21075;-54
2022/04/01 00:30:04;;;;;;;21.45;14.63;;;;;;;9.30;72.90;98911.11;1759494;80;21532;-54
2022/04/01 00:32:31;;;;;;;21.30;15.90;;;;;;;9.33;72.94;98915.22;1753089;80;21146;-53
2022/04/01 00:34:58;;;;;;;22.27;14.58;;;;;;;9.34;72.92;98904.58;1755140;80;21001;-54
2022/04/01 00:37:25;;;;;;;23.52;14.43;;;;;;;9.35;72.73;98909.36;1758010;80;21110;-54
2022/04/01 00:39:52;;;;;;;21.23;13.95;;;;;;;9.34;72.73;98915.08;1763138;80;21529;-54
2022/04/01 00:42:19;;;;;;;19.75;13.35;;;;;;;9.38;72.62;98899.84;1761194;80;21120;-54
2022/04/01 00:44:46;;;;;;;19.92;14.18;;;;;;;9.40;72.44;98894.79;1755878;80;21139;-54
2022/04/01 00:47:14;;;;;;;26.52;14.87;;;;;;;9.37;72.54;98889.02;1760857;80;21051;-53
2022/04/01 00:49:43;;;;;;;19.35;14.45;;;;;;;9.36;72.60;98898.68;1758965;80;20976;-53
2022/04/01 00:52:16;;;;;;;21.45;14.28;;;;;;;9.34;72.74;98910.32;1760147;80;21098;-54
2022/04/01 00:54:43;;;;;;;22.22;13.70;;;;;;;9.32;72.88;98913.09;1754474;80;21106;-54
2022/04/01 00:57:13;;;;;;;20.35;13.50;;;;;;;9.34;72.83;98914.26;1767118;80;21564;-54
2022/04/01 00:59:42;;;;;;;21.62;13.10;;;;;;;9.43;72.79;98912.88;1763200;80;21006;-54
2022/04/01 01:02:09;;;;;;;19.07;13.90;;;;;;;9.53;72.62;98910.16;1760622;80;21077;-54
2022/04/01 01:04:37;;;;;;;20.05;14.10;;;;;;;9.60;72.49;98904.63;1759003;80;21054;-52
2022/04/01 01:07:05;;;;;;;22.20;15.13;;;;;;;9.62;72.28;98890.03;1759279;80;21059;-54
2022/04/01 01:09:32;;;;;;;25.43;15.48;;;;;;;9.59;72.16;98885.90;1766029;80;21066;-52
2022/04/01 01:11:59;;;;;;;22.17;14.15;;;;;;;9.56;72.09;98882.76;1754949;80;22619;-55
2022/04/01 01:14:31;;;;;;;23.62;14.03;;;;;;;9.52;72.07;98876.99;1759755;80;21012;-55
2022/04/01 01:16:59;;;;;;;18.85;13.58;;;;;;;9.53;72.12;98877.34;1772133;80;21007;-52
2022/04/01 01:19:27;;;;;;;23.98;15.00;;;;;;;9.54;72.16;98875.03;1767607;80;21150;-52
2022/04/01 01:21:55;;;;;;;22.25;14.78;;;;;;;9.56;72.24;98874.88;1751613;80;21217;-52
2022/04/01 01:24:31;;;;;;;22.07;14.00;;;;;;;9.55;72.42;98864.03;1753392;80;21023;-52
2022/04/01 01:26:59;;;;;;;20.55;14.18;;;;;;;9.55;72.34;98864.03;1754514;80;21118;-53
2022/04/01 01:29:29;;;;;;;24.77;15.30;;;;;;;9.47;72.41;98853.81;1762229;80;21537;-53
2022/04/01 01:31:58;;;;;;;22.07;15.15;;;;;;;9.44;72.44;98855.43;1762705;80;21023;-54
2022/04/01 01:34:27;;;;;;;23.73;15.90;;;;;;;9.45;72.41;98841.33;1760828;79;22127;-54
2022/04/01 01:36:56;;;;;;;20.50;14.13;;;;;;;9.48;72.41;98833.16;1699831;83;21050;-54
2022/04/01 01:39:23;;;;;;;24.00;14.90;;;;;;;9.48;72.50;98829.22;1714717;82;21493;-54
2022/04/01 01:41:50;;;;;;;22.87;16.37;;;;;;;9.48;72.68;98825.75;1753917;80;21035;-54
2022/04/01 01:44:18;;;;;;;23.73;15.83;;;;;;;9.45;72.71;98818.20;1753776;80;21086;-53
2022/04/01 01:46:46;;;;;;;20.82;15.40;;;;;;;9.42;72.74;98811.45;1752703;80;21113;-54
2022/04/01 01:49:13;;;;;;;22.00;14.80;;;;;;;9.40;72.83;98806.03;1756324;80;21716;-53
2022/04/01 01:54:43;;;;;;;22.65;16.05;;;;;;;9.45;72.86;98778.33;1762136;80;21091;-52
2022/04/01 01:57:08;;;;;;;23.42;15.60;;;;;;;9.42;72.97;98768.63;1750615;80;21074;-52
2022/04/01 01:59:36;;;;;;;19.15;15.45;;;;;;;9.39;73.19;98771.55;1678359;83;21158;-52
2022/04/01 02:02:05;;;;;;;22.25;15.50;;;;;;;9.35;73.33;98774.17;1698435;82;22308;-52
2022/04/01 02:04:34;;;;;;;19.90;13.95;;;;;;;9.30;73.50;98767.56;1745299;80;21066;-52
2022/04/01 02:07:03;;;;;;;19.42;13.85;;;;;;;9.34;73.55;98775.95;1745186;80;21047;-52
2022/04/01 02:09:30;;;;;;;20.02;13.45;;;;;;;9.39;73.49;98784.19;1752534;80;21042;-52
2022/04/01 02:11:58;;;;;;;23.57;15.72;;;;;;;9.46;73.58;98785.70;1744019;81;22039;-52
2022/04/01 02:14:26;;;;;;;20.65;15.23;;;;;;;9.52;73.50;98782.97;1759157;80;21067;-52
2022/04/01 02:16:53;;;;;;;19.10;14.63;;;;;;;9.56;73.46;98755.41;1753015;80;21615;-54
2022/04/01 02:19:23;;;;;;;24.40;16.62;;;;;;;9.57;73.31;98761.00;1753751;80;21083;-53
2022/04/01 02:21:52;;;;;;;18.87;13.03;;;;;;;9.57;73.31;98753.13;1711692;82;21580;-53
2022/04/01 02:24:21;;;;;;;21.40;13.88;;;;;;;9.57;73.05;98744.75;1758626;80;21247;-53
2022/04/01 02:26:48;;;;;;;20.90;16.12;;;;;;;9.62;72.92;98745.09;1751309;80;21031;-53
2022/04/01 02:29:20;;;;;;;19.60;14.70;;;;;;;9.66;72.87;98734.59;1761320;80;21189;-53
2022/04/01 02:31:52;;;;;;;22.82;15.75;;;;;;;9.70;72.89;98736.45;1754017;80;21011;-53
2022/04/01 02:34:36;;;;;;;20.88;14.53;;;;;;;9.70;72.87;98744.80;1684116;83;21133;-53
2022/04/01 02:37:04;;;;;;;21.57;14.43;;;;;;;9.67;72.96;98746.77;1729670;80;21244;-53
2022/04/01 02:39:43;;;;;;;21.57;14.68;;;;;;;9.64;73.05;98744.95;1696637;83;21575;-54
2022/04/01 02:42:12;;;;;;;19.75;14.60;;;;;;;9.60;73.14;98744.91;1703330;82;21560;-53
2022/04/01 02:44:39;;;;;;;20.15;12.70;;;;;;;9.62;73.12;98743.78;1702124;82;21111;-53
2022/04/01 02:47:07;;;;;;;17.67;12.50;;;;;;;9.67;72.94;98747.27;1704102;82;21086;-53
2022/04/01 02:52:06;;;;;;;17.92;13.38;;;;;;;9.82;73.09;98743.05;1787026;78;22676;-53
2022/04/01 02:54:37;;;;;;;20.08;13.32;;;;;;;9.86;72.98;98743.05;1755365;80;21012;-53
2022/04/01 02:57:05;;;;;;;17.92;14.13;;;;;;;9.92;72.92;98738.99;1745592;80;21667;-54
2022/04/01 02:59:33;;;;;;;20.35;13.53;;;;;;;9.95;72.67;98732.58;1752710;80;21023;-54
2022/04/01 03:02:00;;;;;;;20.45;15.10;;;;;;;9.93;72.49;98730.11;1751454;79;22527;-54
2022/04/01 03:04:28;;;;;;;20.88;13.55;;;;;;;9.89;72.39;98715.66;1751600;80;21078;-53
2022/04/01 03:06:56;;;;;;;18.17;12.28;;;;;;;9.84;72.46;98702.99;1753358;80;21025;-54
2022/04/01 03:09:24;;;;;;;19.70;13.58;;;;;;;9.83;72.48;98710.56;1756025;81;21128;-54
2022/04/01 03:11:54;;;;;;;18.90;12.37;;;;;;;9.88;72.47;98724.52;1750714;80;20988;-54
2022/04/01 03:14:41;;;;;;;16.77;12.70;;;;;;;9.91;72.54;98732.58;1747641;80;21293;-53
2022/04/01 03:17:12;;;;;;;18.20;12.90;;;;;;;9.95;72.63;98733.89;1747665;80;21010;-54
2022/04/01 03:19:41;;;;;;;19.25;13.85;;;;;;;9.98;72.77;98734.39;1747785;80;21023;-54
2022/04/01 03:22:08;;;;;;;19.80;14.10;;;;;;;10.01;72.79;98724.07;1754860;80;21295;-53
2022/04/01 03:24:35;;;;;;;18.87;13.85;;;;;;;10.02;72.70;98725.73;1756257;81;21087;-54
2022/04/01 03:27:03;;;;;;;18.90;14.03;;;;;;;10.02;72.71;98717.34;1752966;80;21043;-54
2022/04/01 03:29:32;;;;;;;19.50;12.40;;;;;;;10.06;72.69;98715.72;1751578;81;21032;-53
2022/04/01 03:31:59;;;;;;;17.70;13.32;;;;;;;10.09;72.46;98701.75;1747519;80;21060;-53
2022/04/01 03:34:26;;;;;;;18.65;13.72;;;;;;;10.14;72.23;98698.16;1753972;80;21908;-54
2022/04/01 03:36:54;;;;;;;20.05;14.87;;;;;;;10.20;72.17;98700.15;1748664;80;21046;-54
2022/04/01 03:39:24;;;;;;;19.35;13.48;;;;;;;10.23;72.11;98702.42;1729423;81;21054;-54
2022/04/01 03:41:53;;;;;;;21.30;14.65;;;;;;;10.21;72.11;98698.33;1748524;80;21520;-54
2022/04/01 03:44:24;;;;;;;19.67;14.03;;;;;;;10.19;72.27;98699.80;1717751;81;21026;-54
2022/04/01 03:47:02;;;;;;;19.48;13.90;;;;;;;10.20;72.30;98710.66;1736102;80;21101;-54
2022/04/01 03:49:33;;;;;;;19.52;12.65;;;;;;;10.17;72.22;98716.23;1729150;81;20988;-55
2022/04/01 03:52:07;;;;;;;20.48;13.70;;;;;;;10.16;72.14;98717.20;1751278;81;21070;-54
2022/04/01 03:54:32;;;;;;;20.72;14.60;;;;;;;10.21;72.11;98720.67;1753937;80;21063;-54
2022/04/01 03:57:00;;;;;;;19.80;13.70;;;;;;;10.25;72.06;98722.48;1754382;81;21018;-55
2022/04/01 03:59:45;;;;;;;21.87;15.50;;;;;;;10.30;72.10;98726.27;1754800;80;21146;-54
2022/04/01 04:02:35;;;;;;;20.50;15.80;;;;;;;10.37;72.09;98725.16;1739192;81;21034;-54
2022/04/01 04:05:03;;;;;;;25.32;16.52;;;;;;;10.39;72.10;98723.20;1753177;80;21165;-54
2022/04/01 04:07:31;;;;;;;22.40;16.23;;;;;;;10.39;71.97;98721.89;1751164;81;21525;-54
2022/04/01 04:09:59;;;;;;;21.75;15.63;;;;;;;10.39;72.05;98725.84;1752102;80;21059;-54
2022/04/01 04:12:27;;;;;;;21.40;14.95;;;;;;;10.37;72.01;98708.91;1754865;81;21116;-54
2022/04/01 04:15:00;;;;;;;21.87;14.30;;;;;;;10.36;71.72;98699.36;1749594;79;21543;-54
2022/04/01 04:17:47;;;;;;;19.62;14.23;;;;;;;10.40;71.63;98697.23;1753781;80;21017;-54
2022/04/01 04:20:34;;;;;;;22.95;15.58;;;;;;;10.42;71.63;98696.56;1744195;80;21027;-52
2022/04/01 04:23:21;;;;;;;25.77;14.80;;;;;;;10.49;71.84;98694.95;1753249;80;21102;-54
2022/04/01 04:26:12;;;;;;;24.75;17.05;;;;;;;10.52;71.86;98698.57;1752731;80;22588;-53
2022/04/01 04:28:43;;;;;;;24.23;16.70;;;;;;;10.50;71.78;98687.37;1753073;81;21153;-53
2022/04/01 04:31:29;;;;;;;23.80;17.73;;;;;;;10.49;71.87;98688.38;1728029;81;22197;-53
2022/04/01 04:34:04;;;;;;;22.85;16.00;;;;;;;10.47;72.00;98680.30;1755606;81;21510;-53
2022/04/01 04:36:38;;;;;;;21.60;15.20;;;;;;;10.49;71.93;98679.17;1752638;80;21549;-53
2022/04/01 04:39:10;;;;;;;31.45;15.98;;;;;;;10.55;71.91;98675.05;1752833;80;21192;-53
2022/04/01 04:41:37;;;;;;;26.17;17.60;;;;;;;10.62;71.93;98668.64;1752971;80;21091;-53
2022/04/01 04:44:06;;;;;;;28.62;17.52;;;;;;;10.67;71.88;98663.20;1755429;81;21579;-54
2022/04/01 04:46:32;;;;;;;25.37;17.80;;;;;;;10.68;71.86;98666.17;1753873;81;21055;-53
2022/04/01 04:48:59;;;;;;;21.73;16.73;;;;;;;10.67;71.93;98663.70;1756110;80;21340;-53
2022/04/01 04:51:28;;;;;;;25.48;17.55;;;;;;;10.66;72.05;98655.00;1750527;80;22314;-53
2022/04/01 04:53:59;;;;;;;21.65;14.25;;;;;;;10.69;72.27;98652.05;1749784;81;21052;-53
2022/04/01 04:56:26;;;;;;;22.27;14.68;;;;;;;10.76;72.24;98649.57;1758545;79;21022;-53
2022/04/01 04:58:56;;;;;;;23.42;14.70;;;;;;;10.85;72.03;98653.81;1752774;80;21086;-53
2022/04/01 05:01:41;;;;;;;26.33;16.52;;;;;;;10.91;71.95;98650.53;1741545;80;21109;-53
2022/04/01 05:04:55;;;;;;;25.48;15.35;;;;;;;10.97;71.90;98643.77;1731324;81;21316;-53
2022/04/01 05:07:50;;;;;;;25.62;17.45;;;;;;;11.01;71.87;98645.08;1702276;82;21569;-52
2022/04/01 05:10:49;;;;;;;23.98;16.87;;;;;;;11.02;71.79;98653.29;1727416;81;21493;-53
2022/04/01 05:13:35;;;;;;;19.25;14.13;;;;;;;11.00;71.63;98652.64;1707255;81;21362;-55
2022/04/01 05:16:08;;;;;;;20.17;15.03;;;;;;;11.00;71.53;98650.52;1743861;80;21080;-53
2022/04/01 05:18:42;;;;;;;22.07;13.30;;;;;;;11.01;71.37;98649.50;1754362;80;21140;-53
2022/04/01 05:21:19;;;;;;;27.30;14.90;;;;;;;11.03;71.52;98648.83;1735566;81;21078;-55
2022/04/01 05:24:01;;;;;;;23.32;15.40;;;;;;;11.07;71.68;98652.79;1748930;81;20999;-54
2022/04/01 05:26:42;;;;;;;35.20;17.10;;;;;;;11.10;71.65;98649.83;1748667;81;21043;-52
2022/04/01 05:29:31;;;;;;;23.42;15.72;;;;;;;11.13;71.63;98644.23;1744666;80;21019;-53
2022/04/01 05:32:09;;;;;;;22.93;16.07;;;;;;;11.14;71.60;98648.48;1732102;81;21259;-54
2022/04/01 05:34:49;;;;;;;25.20;13.03;;;;;;;11.12;71.50;98639.94;1752917;81;21083;-52
2022/04/01 05:37:17;;;;;;;16.48;12.00;;;;;;;11.14;71.40;98637.95;1733119;81;21556;-53
2022/04/01 05:39:46;;;;;;;26.48;13.50;;;;;;;11.15;71.26;98636.47;1754155;80;21103;-52
2022/04/01 05:42:14;;;;;;;21.57;13.35;;;;;;;11.21;71.37;98628.37;1754346;80;21019;-52
2022/04/01 05:44:45;;;;;;;21.07;14.50;;;;;;;11.27;71.32;98622.45;1752799;80;22333;-52
2022/04/01 05:47:12;;;;;;;22.85;13.90;;;;;;;11.31;71.42;98625.55;1720938;81;21046;-53
2022/04/01 05:49:42;;;;;;;20.17;13.40;;;;;;;11.34;71.33;98626.03;1719875;82;21049;-52
2022/04/01 05:52:09;;;;;;;23.45;13.90;;;;;;;11.36;71.27;98621.10;1720802;82;21094;-53
2022/04/01 05:54:38;;;;;;;23.95;12.70;;;;;;;11.35;71.21;98620.29;1755891;81;21041;-53
2022/04/01 05:57:07;;;;;;;19.32;10.98;;;;;;;11.38;71.16;98623.06;1756147;81;22101;-53
2022/04/01 05:59:36;;;;;;;21.97;11.83;;;;;;;11.45;71.05;98624.04;1752320;80;21070;-53
2022/04/01 06:02:52;;;;;;;23.35;12.68;;;;;;;11.50;70.92;98628.30;1751340;80;21070;-53
2022/04/01 06:05:58;;;;;;;25.43;12.82;;;;;;;11.55;70.95;98630.39;1753117;81;21593;-53
2022/04/01 06:08:54;;;;;;;22.17;13.17;;;;;;;11.56;71.11;98624.95;1753360;81;21082;-53
2022/04/01 06:11:56;;;;;;;21.15;13.00;;;;;;;11.57;70.98;98623.97;1729294;81;21102;-53
2022/04/01 06:14:47;;;;;;;19.07;11.28;;;;;;;11.50;71.15;98631.73;1735305;82;21131;-53
2022/04/01 06:17:40;;;;;;;21.87;11.00;;;;;;;11.51;71.36;98629.92;1714302;81;21129;-53
2022/04/01 06:20:07;;;;;;;18.17;10.63;;;;;;;11.57;71.27;98629.23;1748241;80;21034;-53
2022/04/01 06:22:39;;;;;;;24.65;13.58;;;;;;;11.61;71.21;98623.94;1749403;81;21001;-54
2022/04/01 06:25:13;;;;;;;16.42;11.15;;;;;;;11.65;71.30;98622.62;1744776;79;21207;-53
2022/04/01 06:27:47;;;;;;;24.55;11.83;;;;;;;11.69;71.29;98615.99;1740879;81;21035;-52
2022/04/01 06:30:21;;;;;;;17.10;12.20;;;;;;;11.69;71.24;98606.77;1739856;80;20971;-52
2022/04/01 06:33:29;;;;;;;19.77;11.85;;;;;;;11.68;71.23;98604.31;1738292;81;21058;-53
2022/04/01 06:36:14;;;;;;;15.32;10.40;;;;;;;11.66;71.33;98609.75;1746827;82;21623;-53
2022/04/01 06:39:05;;;;;;;19.75;10.65;;;;;;;11.65;71.29;98616.03;1729173;81;21224;-52
2022/04/01 06:41:43;;;;;;;19.90;9.50;;;;;;;11.69;71.44;98606.77;1740192;81;21023;-52
2022/04/01 06:44:28;;;;;;;19.17;11.40;;;;;;;11.76;71.42;98612.67;1737068;81;21023;-53
2022/04/01 06:47:14;;;;;;;21.15;11.20;;;;;;;11.77;71.36;98618.25;1701342;82;21066;-52
2022/04/01 06:49:42;;;;;;;21.42;11.60;;;;;;;11.77;71.51;98618.25;1746210;82;21034;-52
2022/04/01 06:52:28;;;;;;;19.55;11.70;;;;;;;11.78;71.55;98610.68;1751675;81;21046;-53
2022/04/01 06:55:14;;;;;;;18.60;11.40;;;;;;;11.78;71.45;98605.41;1751230;81;21035;-52
2022/04/01 06:57:55;;;;;;;16.67;9.80;;;;;;;11.74;71.46;98603.63;1748731;81;21033;-53
2022/04/01 07:00:26;;;;;;;15.65;8.90;;;;;;;11.77;71.29;98601.13;1755519;80;21063;-53
2022/04/01 07:02:52;;;;;;;16.97;9.75;;;;;;;11.80;71.37;98599.46;1750926;79;21046;-52
2022/04/01 07:05:19;;;;;;;14.05;8.95;;;;;;;11.87;71.23;98602.55;1741338;81;21615;-53
2022/04/01 07:07:47;;;;;;;15.20;10.63;;;;;;;11.90;71.13;98602.20;1714597;82;21042;-53
2022/04/01 07:10:14;;;;;;;20.35;10.45;;;;;;;11.96;71.12;98598.07;1694110;84;21051;-53
2022/04/01 07:12:41;;;;;;;20.32;11.70;;;;;;;12.01;70.99;98597.55;1693421;84;21021;-53
2022/04/01 07:15:10;;;;;;;20.10;10.28;;;;;;;12.01;70.99;98595.73;1695592;84;21063;-53
2022/04/01 07:17:38;;;;;;;17.37;10.80;;;;;;;12.03;70.96;98592.41;1693831;84;21079;-53
2022/04/01 07:20:07;;;;;;;18.30;12.03;;;;;;;12.01;70.81;98593.09;1720582;82;22264;-54
2022/04/01 07:22:36;;;;;;;20.57;10.40;;;;;;;12.02;70.86;98592.59;1688749;84;21086;-53
2022/04/01 07:25:04;;;;;;;21.33;11.25;;;;;;;12.06;70.84;98592.06;1688089;84;21795;-53
2022/04/01 07:27:33;;;;;;;14.98;9.78;;;;;;;12.15;70.74;98592.81;1700038;84;21164;-54
2022/04/01 07:30:18;;;;;;;19.73;10.78;;;;;;;12.21;70.64;98596.08;1699446;82;21029;-53
2022/04/01 07:32:44;;;;;;;16.57;10.53;;;;;;;12.29;70.61;98595.67;1698584;83;21037;-53
2022/04/01 07:35:13;;;;;;;18.52;9.83;;;;;;;12.37;70.56;98595.14;1657910;84;21115;-53
2022/04/01 07:37:46;;;;;;;20.05;10.90;;;;;;;12.42;70.52;98603.81;1605423;87;21147;-53
2022/04/01 07:40:13;;;;;;;21.12;10.15;;;;;;;12.51;70.67;98604.55;1622814;86;22671;-54
2022/04/01 07:42:43;;;;;;;17.20;11.50;;;;;;;12.58;70.51;98594.44;1597285;88;21154;-53
2022/04/01 07:45:29;;;;;;;20.23;10.85;;;;;;;12.62;70.24;98590.45;1598408;88;21137;-53
2022/04/01 07:47:57;;;;;;;14.80;10.53;;;;;;;12.60;69.91;98591.11;1568206;90;21161;-54
2022/04/01 07:50:25;;;;;;;18.05;10.32;;;;;;;12.61;69.83;98584.03;1487172;96;21142;-54
2022/04/01 07:52:53;;;;;;;22.40;10.15;;;;;;;12.65;69.82;98581.34;1503904;93;21186;-54
2022/04/01 07:55:22;;;;;;;21.15;10.10;;;;;;;12.70;69.55;98584.26;1497081;93;21286;-53
2022/04/01 07:57:50;;;;;;;22.42;12.68;;;;;;;12.71;69.33;98576.67;1498482;95;21519;-54
2022/04/01 08:00:18;;;;;;;20.55;10.72;;;;;;;12.68;69.53;98572.27;1470033;96;21680;-53
2022/04/01 08:02:45;;;;;;;20.55;11.78;;;;;;;12.69;69.57;98569.41;1446352;97;21106;-53
2022/04/01 08:05:13;;;;;;;17.77;10.80;;;;;;;12.73;69.49;98567.26;1430687;99;21643;-53
2022/04/01 08:07:41;;;;;;;21.45;11.55;;;;;;;12.77;69.43;98568.52;1429191;99;21214;-53
2022/04/01 08:10:09;;;;;;;23.22;10.72;;;;;;;12.79;69.12;98571.31;1408027;100;21273;-53
2022/04/01 08:12:36;;;;;;;18.17;9.53;;;;;;;12.81;69.17;98566.66;1417935;100;21100;-53
2022/04/01 08:15:07;;;;;;;16.95;9.83;;;;;;;12.87;68.95;98563.78;1436927;96;21171;-54
2022/04/01 08:17:35;;;;;;;21.37;10.43;;;;;;;12.92;68.90;98557.97;1410452;100;21615;-53
2022/04/01 08:20:03;;;;;;;20.23;11.97;;;;;;;12.95;69.00;98558.42;1405382;100;21218;-52
2022/04/01 08:22:31;;;;;;;16.70;10.85;;;;;;;13.00;68.76;98561.33;1363686;104;21681;-53
2022/04/01 08:24:58;;;;;;;23.18;12.05;;;;;;;13.04;68.49;98557.00;1377795;101;21234;-52
2022/04/01 08:27:26;;;;;;;20.85;11.12;;;;;;;13.01;68.39;98562.98;1408978;100;21209;-54
2022/04/01 08:30:13;;;;;;;22.32;11.75;;;;;;;13.01;68.14;98559.02;1416961;100;21183;-53
2022/04/01 08:32:57;;;;;;;21.93;10.40;;;;;;;13.01;68.12;98574.02;1403539;101;21666;-53
2022/04/01 08:35:26;;;;;;;15.65;9.05;;;;;;;13.00;68.24;98572.40;1382597;102;21165;-54
2022/04/01 08:37:55;;;;;;;19.57;10.65;;;;;;;12.95;68.36;98572.12;1378733;103;21721;-53
2022/04/01 08:40:23;;;;;;;23.38;11.38;;;;;;;12.91;68.64;98569.03;1359659;104;21306;-53
2022/04/01 08:42:50;;;;;;;23.22;12.05;;;;;;;12.92;68.74;98575.13;1380668;101;21795;-54
2022/04/01 08:45:37;;;;;;;22.37;12.18;;;;;;;12.90;68.70;98573.98;1398874;100;21222;-53
2022/04/01 08:48:06;;;;;;;29.90;12.73;;;;;;;12.85;68.93;98574.22;1402797;100;21246;-54
2022/04/01 08:50:33;;;;;;;20.00;11.88;;;;;;;12.82;69.00;98575.39;1401870;100;22775;-52
2022/04/01 08:53:00;;;;;;;21.87;11.38;;;;;;;12.80;69.12;98581.36;1401781;100;21242;-53
2022/04/01 08:55:28;;;;;;;17.95;11.03;;;;;;;12.79;69.32;98576.59;1440929;98;21183;-53
2022/04/01 08:57:55;;;;;;;18.62;10.40;;;;;;;12.85;69.27;98578.19;1452625;98;21862;-52
2022/04/01 09:00:41;;;;;;;27.00;12.35;;;;;;;12.92;69.30;98573.30;1475735;95;21141;-54
2022/04/01 09:03:09;;;;;;;22.07;12.03;;;;;;;12.97;69.30;98576.20;1486264;95;21186;-55
2022/04/01 09:05:38;;;;;;;31.10;11.90;;;;;;;12.96;69.36;98575.91;1456456;96;21216;-54
2022/04/01 09:08:08;;;;;;;22.80;12.68;;;;;;;12.96;69.57;98573.27;1467036;96;21175;-54
2022/04/01 09:11:05;;;;;;;19.70;12.47;;;;;;;12.97;69.72;98572.76;1466676;96;21666;-53
2022/04/01 09:13:45;;;;;;;19.20;11.45;;;;;;;12.99;69.87;98566.78;1470529;96;21664;-52
2022/04/01 09:16:32;;;;;;;23.02;11.35;;;;;;;13.06;69.71;98567.69;1437898;98;21270;-52
2022/04/01 09:19:04;;;;;;;20.57;10.20;;;;;;;13.14;69.54;98564.14;1484574;96;21554;-54
2022/04/01 09:21:49;;;;;;;25.08;12.35;;;;;;;13.18;69.50;98567.55;1461545;96;21129;-53
2022/04/01 09:24:17;;;;;;;19.10;11.53;;;;;;;13.22;69.51;98569.83;1474689;96;21403;-54
2022/04/01 09:26:45;;;;;;;22.55;13.38;;;;;;;13.22;69.24;98569.83;1483442;96;21319;-54
2022/04/01 09:29:11;;;;;;;28.05;13.98;;;;;;;13.18;69.17;98560.95;1469721;96;21142;-54
2022/04/01 09:31:40;;;;;;;26.25;13.68;;;;;;;13.18;69.28;98561.47;1473811;96;21209;-54
2022/04/01 09:34:11;;;;;;;22.02;12.63;;;;;;;13.17;69.34;98563.77;1487109;96;21142;-53
2022/04/01 09:36:41;;;;;;;23.45;12.45;;;;;;;13.20;69.42;98566.05;1419613;100;21137;-54
2022/04/01 09:39:20;;;;;;;23.20;10.70;;;;;;;13.26;69.43;98565.30;1447411;98;21194;-54
2022/04/01 09:41:49;;;;;;;22.93;11.22;;;;;;;13.34;69.25;98565.73;1436526;98;21177;-54
2022/04/01 09:44:24;;;;;;;21.75;11.90;;;;;;;13.43;69.34;98570.41;1449379;98;21176;-54
2022/04/01 09:47:00;;;;;;;20.95;12.68;;;;;;;13.47;69.30;98571.69;1442751;98;21663;-54
2022/04/01 09:49:33;;;;;;;27.13;14.43;;;;;;;13.46;69.33;98574.00;1442008;98;21903;-54
2022/04/01 09:52:02;;;;;;;25.82;13.25;;;;;;;13.50;69.53;98577.90;1480455;94;21148;-54
2022/04/01 09:54:29;;;;;;;21.25;13.15;;;;;;;13.56;69.68;98574.01;1507824;95;21136;-54
2022/04/01 09:56:56;;;;;;;20.80;12.05;;;;;;;13.67;69.71;98575.36;1514063;93;21163;-54
2022/04/01 09:59:43;;;;;;;26.02;12.73;;;;;;;13.84;69.73;98573.30;1516720;93;21740;-53
2022/04/01 10:02:11;;;;;;;23.00;11.68;;;;;;;14.08;69.56;98574.73;1520619;93;21137;-52
2022/04/01 10:04:58;;;;;;;26.15;12.65;;;;;;;14.29;69.10;98564.65;1515964;93;21633;-52
2022/04/01 10:07:26;;;;;;;22.42;12.58;;;;;;;14.56;68.68;98570.63;1514375;93;21281;-52
2022/04/01 10:09:55;;;;;;;24.27;13.58;;;;;;;14.70;68.71;98566.30;1514491;93;21307;-52
2022/04/01 10:12:42;;;;;;;23.87;14.65;;;;;;;14.84;68.43;98574.13;1508361;93;22380;-53
2022/04/01 10:15:29;;;;;;;20.37;12.82;;;;;;;15.01;67.73;98568.01;1582947;90;21097;-52
2022/04/01 10:17:57;;;;;;;26.57;14.60;;;;;;;15.10;67.24;98567.85;1543573;91;21214;-52
2022/04/01 10:20:34;;;;;;;24.90;12.70;;;;;;;15.14;67.20;98563.27;1521042;93;21130;-52
2022/04/01 10:23:06;;;;;;;22.20;11.03;;;;;;;15.20;66.33;98562.48;1524103;92;21149;-53
2022/04/01 10:26:01;;;;;;;26.42;12.05;;;;;;;15.23;65.91;98571.86;1526158;92;21137;-53
2022/04/01 10:28:28;;;;;;;19.30;12.58;;;;;;;15.19;65.51;98566.66;1522438;90;21367;-52
2022/04/01 10:31:01;;;;;;;28.17;12.53;;;;;;;15.08;65.55;98569.85;1556882;90;21094;-53
2022/04/01 10:33:33;;;;;;;27.98;14.13;;;;;;;15.02;65.35;98566.98;1563212;91;21051;-52
2022/04/01 10:36:34;;;;;;;24.70;13.85;;;;;;;15.00;65.30;98563.72;1561389;90;21099;-53
2022/04/01 10:39:06;;;;;;;21.70;13.15;;;;;;;14.97;64.97;98565.94;1559584;90;21075;-53
2022/04/01 10:42:12;;;;;;;29.92;14.73;;;;;;;14.93;64.70;98571.30;1561727;90;21083;-52
2022/04/01 10:44:56;;;;;;;25.72;12.93;;;;;;;14.83;64.87;98567.70;1437465;98;21102;-53
2022/04/01 10:51:36;;;;;;;25.48;13.20;;;;;;;14.76;64.92;98570.31;1425800;99;21149;-52
2022/04/01 10:53:37;;;;;;;33.67;12.35;;;;;;;14.86;64.82;98569.94;1374096;102;21250;-52
2022/04/01 10:56:32;;;;;;;26.27;12.95;;;;;;;14.89;64.78;98570.88;1383345;102;21777;-54
2022/04/01 10:59:19;;;;;;;25.80;13.90;;;;;;;14.91;64.82;98568.03;1439230;98;21096;-53
2022/04/01 11:02:02;;;;;;;28.10;15.30;;;;;;;14.92;64.62;98573.14;1440945;98;21177;-53
2022/04/01 11:04:50;;;;;;;39.13;14.95;;;;;;;14.91;64.45;98564.91;1440403;98;21147;-54
2022/04/01 11:07:37;;;;;;;24.65;13.93;;;;;;;14.91;64.46;98567.55;1443045;96;21192;-53
2022/04/01 11:10:08;;;;;;;29.27;14.53;;;;;;;14.91;64.45;98569.36;1470886;96;21213;-53
2022/04/01 11:12:52;;;;;;;29.23;14.07;;;;;;;14.92;64.42;98568.36;1469992;96;21134;-52
2022/04/01 11:15:25;;;;;;;25.62;13.00;;;;;;;14.89;64.27;98570.88;1402741;100;21772;-52
2022/04/01 11:18:00;;;;;;;21.90;12.93;;;;;;;14.88;64.11;98567.94;1406948;100;21749;-53
2022/04/01 11:20:32;;;;;;;33.58;13.13;;;;;;;14.90;63.87;98569.06;1404340;100;21105;-53
2022/04/01 11:23:04;;;;;;;23.47;13.30;;;;;;;14.93;63.89;98571.30;1474957;94;21379;-53
2022/04/01 11:25:38;;;;;;;22.87;13.55;;;;;;;14.92;64.09;98566.52;1437935;99;21151;-53
2022/04/01 11:28:14;;;;;;;27.32;14.58;;;;;;;14.93;63.98;98570.81;1469267;93;21116;-53
2022/04/01 11:30:54;;;;;;;31.20;14.68;;;;;;;14.91;63.74;98572.01;1504205;95;21358;-53
2022/04/01 11:33:39;;;;;;;26.60;13.85;;;;;;;14.88;63.85;98576.36;1537957;91;21087;-52
2022/04/01 11:36:07;;;;;;;30.25;13.95;;;;;;;14.81;63.99;98581.13;1545361;91;21187;-53
2022/04/01 11:38:36;;;;;;;24.02;12.55;;;;;;;14.79;64.05;98574.38;1459376;96;21153;-52
2022/04/01 11:41:21;;;;;;;23.22;14.00;;;;;;;14.80;63.93;98575.52;1458440;96;21112;-52
2022/04/01 11:43:50;;;;;;;28.07;13.68;;;;;;;14.80;63.84;98577.35;1460105;96;21134;-52
2022/04/01 11:46:19;;;;;;;25.45;14.55;;;;;;;14.75;64.14;98575.80;1383647;102;21195;-52
2022/04/01 11:49:04;;;;;;;28.32;14.78;;;;;;;14.77;64.15;98583.03;1395292;102;21207;-52
2022/04/01 11:51:33;;;;;;;25.50;14.40;;;;;;;14.81;64.06;98573.19;1334161;105;21194;-52
2022/04/01 11:54:17;;;;;;;27.20;15.23;;;;;;;14.84;63.93;98575.94;1327276;106;21214;-52
2022/04/01 11:56:46;;;;;;;27.58;15.68;;;;;;;14.91;64.04;98574.17;1300768;107;21256;-52